createdAt,value
2018-08-09T00:01:37.925Z,8.40
2018-08-09T00:04:06.418Z,9.80
2018-08-09T00:06:34.996Z,9.57
2018-08-09T00:09:03.723Z,8.40
2018-08-09T00:11:32.248Z,9.20
2018-08-09T00:14:00.705Z,9.50
2018-08-09T00:16:29.187Z,9.70
2018-08-09T00:18:57.679Z,9.50
2018-08-09T00:21:26.218Z,9.83
2018-08-09T00:23:55.165Z,9.77
2018-08-09T00:26:23.590Z,9.20
2018-08-09T00:28:52.155Z,8.90
2018-08-09T00:31:21.362Z,8.57
2018-08-09T00:33:50.786Z,9.90
2018-08-09T00:36:19.448Z,9.90
2018-08-09T00:38:48.028Z,9.10
2018-08-09T00:41:16.606Z,8.40
2018-08-09T00:43:45.093Z,9.47
2018-08-09T00:46:13.567Z,10.60
2018-08-09T00:48:42.338Z,9.50
2018-08-09T00:51:10.882Z,9.50
2018-08-09T00:53:39.718Z,9.37
2018-08-09T00:56:08.252Z,8.50
2018-08-09T00:58:36.795Z,9.07
2018-08-09T01:01:05.480Z,8.30
2018-08-09T01:03:33.966Z,9.47
2018-08-09T01:06:02.438Z,8.77
2018-08-09T01:08:31.330Z,9.20
2018-08-09T01:10:59.809Z,9.10
2018-08-09T01:13:28.337Z,10.67
2018-08-09T01:15:56.864Z,9.10
2018-08-09T01:18:25.337Z,8.90
2018-08-09T01:20:53.888Z,9.23
2018-08-09T01:23:22.404Z,9.57
2018-08-09T01:25:50.991Z,9.83
2018-08-09T01:28:19.508Z,9.20
2018-08-09T01:30:48.090Z,9.97
2018-08-09T01:33:16.614Z,9.10
2018-08-09T01:35:45.085Z,10.90
2018-08-09T01:38:13.705Z,9.60
2018-08-09T01:40:42.154Z,10.60
2018-08-09T01:43:21.925Z,10.00
2018-08-09T01:45:50.474Z,9.63
2018-08-09T01:48:19.437Z,9.33
2018-08-09T01:50:47.953Z,10.53
2018-08-09T01:53:17.353Z,9.87
2018-08-09T01:55:45.848Z,10.27
2018-08-09T01:58:14.324Z,10.37
2018-08-09T02:00:42.872Z,9.53
2018-08-09T02:03:11.397Z,9.77
2018-08-09T02:05:39.950Z,11.17
2018-08-09T02:08:08.453Z,11.47
2018-08-09T02:10:37.025Z,10.77
2018-08-09T02:13:05.694Z,11.30
2018-08-09T02:15:34.178Z,11.90
2018-08-09T02:18:03.116Z,11.50
2018-08-09T02:20:31.640Z,11.70
2018-08-09T02:23:00.158Z,11.67
2018-08-09T02:25:28.682Z,11.97
2018-08-09T02:27:57.261Z,13.73
2018-08-09T02:30:25.808Z,12.83
2018-08-09T02:32:54.463Z,12.30
2018-08-09T02:35:23.535Z,12.37
2018-08-09T02:37:52.241Z,9.97
2018-08-09T02:40:21.075Z,12.93
2018-08-09T02:42:49.684Z,12.40
2018-08-09T02:45:18.471Z,16.37
2018-08-09T02:47:46.963Z,15.47
2018-08-09T02:50:15.494Z,14.43
2018-08-09T02:52:44.174Z,13.93
2018-08-09T02:55:12.746Z,15.70
2018-08-09T02:57:41.290Z,13.93
2018-08-09T03:00:09.850Z,13.87
2018-08-09T03:02:38.810Z,15.73
2018-08-09T03:05:07.345Z,14.07
2018-08-09T03:07:35.859Z,15.70
2018-08-09T03:10:04.534Z,16.30
2018-08-09T03:12:33.049Z,15.67
2018-08-09T03:15:01.982Z,14.57
2018-08-09T03:17:30.549Z,14.93
2018-08-09T03:19:59.081Z,16.83
2018-08-09T03:22:27.594Z,17.30
2018-08-09T03:24:56.097Z,16.47
2018-08-09T03:27:24.647Z,19.30
2018-08-09T03:29:53.202Z,16.57
2018-08-09T03:32:21.764Z,15.83
2018-08-09T03:34:50.735Z,15.93
2018-08-09T03:37:19.314Z,15.20
2018-08-09T03:39:47.894Z,16.70
2018-08-09T03:42:16.485Z,17.77
2018-08-09T03:44:45.002Z,18.00
2018-08-09T03:47:13.492Z,18.73
2018-08-09T03:49:42.041Z,20.30
2018-08-09T03:52:10.586Z,18.87
2018-08-09T03:54:39.160Z,20.00
2018-08-09T03:57:07.773Z,19.87
2018-08-09T03:59:36.347Z,29.17
2018-08-09T04:02:04.885Z,22.23
2018-08-09T04:04:33.357Z,24.30
2018-08-09T04:07:01.883Z,25.53
2018-08-09T04:09:30.411Z,23.90
2018-08-09T04:11:58.940Z,28.07
2018-08-09T04:14:27.441Z,31.73
2018-08-09T04:16:55.981Z,30.20
2018-08-09T04:19:24.674Z,31.93
2018-08-09T04:21:53.218Z,30.20
2018-08-09T04:24:22.085Z,29.17
2018-08-09T04:26:50.784Z,31.33
2018-08-09T04:29:19.304Z,31.27
2018-08-09T04:31:48.175Z,30.90
2018-08-09T04:34:16.922Z,30.47
2018-08-09T04:36:45.501Z,30.53
2018-08-09T04:39:14.018Z,33.73
2018-08-09T04:41:42.551Z,33.50
2018-08-09T04:44:11.799Z,29.10
2018-08-09T04:48:04.681Z,33.23
2018-08-09T04:50:33.194Z,28.00
2018-08-09T04:53:01.711Z,28.87
2018-08-09T04:55:30.523Z,28.30
2018-08-09T04:57:59.561Z,29.50
2018-08-09T05:00:28.037Z,30.93
2018-08-09T05:02:56.537Z,30.63
2018-08-09T05:05:27.473Z,27.60
2018-08-09T05:07:55.958Z,31.27
2018-08-09T05:10:24.731Z,31.20
2018-08-09T05:12:53.485Z,29.30
2018-08-09T05:15:22.008Z,28.90
2018-08-09T05:17:50.717Z,27.37
2018-08-09T05:20:19.263Z,28.10
2018-08-09T05:22:48.036Z,26.10
2018-08-09T05:25:16.550Z,26.43
2018-08-09T05:27:45.071Z,23.90
2018-08-09T05:30:13.557Z,24.33
2018-08-09T05:32:42.109Z,24.00
2018-08-09T05:35:10.657Z,23.70
2018-08-09T05:37:39.219Z,23.20
2018-08-09T05:40:07.774Z,22.83
2018-08-09T05:42:36.325Z,23.50
2018-08-09T05:45:05.274Z,20.80
2018-08-09T05:47:33.813Z,21.33
2018-08-09T05:50:02.302Z,18.63
2018-08-09T05:52:30.863Z,18.20
2018-08-09T05:54:59.346Z,17.40
2018-08-09T05:57:27.861Z,16.30
2018-08-09T05:59:56.891Z,16.30
2018-08-09T06:02:25.441Z,15.43
2018-08-09T06:04:53.949Z,16.43
2018-08-09T06:07:22.584Z,15.47
2018-08-09T06:09:51.215Z,14.43
2018-08-09T06:12:19.760Z,14.80
2018-08-09T06:14:48.565Z,13.50
2018-08-09T06:17:17.097Z,14.23
2018-08-09T06:19:45.853Z,14.17
2018-08-09T06:22:14.444Z,13.27
2018-08-09T06:24:42.958Z,13.57
2018-08-09T06:27:11.571Z,13.20
2018-08-09T06:29:40.146Z,13.10
2018-08-09T06:32:08.661Z,13.10
2018-08-09T06:34:37.235Z,11.43
2018-08-09T06:37:05.769Z,11.33
2018-08-09T06:39:35.269Z,11.80
2018-08-09T06:42:03.835Z,12.37
2018-08-09T06:44:32.741Z,11.70
2018-08-09T06:47:01.267Z,13.83
2018-08-09T06:49:29.811Z,12.60
2018-08-09T06:51:58.766Z,14.13
2018-08-09T06:54:27.283Z,11.27
2018-08-09T06:56:55.833Z,11.57
2018-08-09T06:59:24.415Z,9.50
2018-08-09T07:01:52.970Z,9.37
2018-08-09T07:04:21.510Z,10.40
2018-08-09T07:06:50.135Z,9.90
2018-08-09T07:09:18.661Z,11.60
2018-08-09T07:11:47.162Z,12.57
2018-08-09T07:14:15.673Z,11.57
2018-08-09T07:16:44.245Z,13.00
2018-08-09T07:19:12.752Z,12.97
2018-08-09T07:21:41.341Z,11.67
2018-08-09T07:24:10.260Z,11.60
2018-08-09T07:26:39.398Z,12.20
2018-08-09T07:29:07.990Z,11.63
2018-08-09T07:31:36.620Z,11.67
2018-08-09T07:34:05.172Z,13.23
2018-08-09T07:36:33.780Z,11.33
2018-08-09T07:39:02.282Z,11.57
2018-08-09T07:41:30.799Z,10.13
2018-08-09T07:43:59.344Z,11.03
2018-08-09T07:46:27.874Z,10.80
2018-08-09T07:48:56.405Z,10.53
2018-08-09T07:51:25.154Z,11.00
2018-08-09T07:53:53.742Z,12.27
2018-08-09T07:56:22.499Z,11.20
2018-08-09T07:58:51.046Z,9.53
2018-08-09T08:01:19.982Z,9.07
2018-08-09T08:03:48.605Z,8.10
2018-08-09T08:06:17.142Z,10.00
2018-08-09T08:08:45.689Z,9.40
2018-08-09T08:11:14.234Z,8.37
2018-08-09T08:13:42.747Z,8.30
2018-08-09T08:16:11.297Z,6.87
2018-08-09T08:18:39.841Z,8.10
2018-08-09T08:21:08.462Z,7.30
2018-08-09T08:23:36.991Z,8.23
2018-08-09T08:26:05.623Z,7.10
2018-08-09T08:28:34.142Z,7.33
2018-08-09T08:31:02.658Z,7.60
2018-08-09T08:33:31.218Z,6.47
2018-08-09T08:35:59.770Z,6.90
2018-08-09T08:38:28.267Z,5.90
2018-08-09T08:40:56.835Z,5.90
2018-08-09T08:43:25.367Z,6.23
2018-08-09T08:45:53.937Z,5.90
2018-08-09T08:48:22.509Z,5.43
2018-08-09T08:50:51.047Z,5.50
2018-08-09T08:53:19.740Z,4.10
2018-08-09T08:55:48.281Z,5.43
2018-08-09T08:58:16.810Z,4.53
2018-08-09T09:00:45.395Z,4.20
2018-08-09T09:03:14.013Z,4.50
2018-08-09T09:05:42.474Z,4.00
2018-08-09T09:08:11.013Z,4.20
2018-08-09T09:10:39.517Z,4.07
2018-08-09T09:13:08.686Z,3.30
2018-08-09T09:15:37.200Z,3.97
2018-08-09T09:18:06.209Z,2.93
2018-08-09T09:20:34.696Z,3.43
2018-08-09T09:23:03.206Z,3.93
2018-08-09T09:25:31.761Z,3.40
2018-08-09T09:28:00.298Z,3.90
2018-08-09T09:30:29.421Z,3.47
2018-08-09T09:32:57.938Z,3.47
2018-08-09T09:35:26.494Z,3.63
2018-08-09T09:37:55.071Z,4.20
2018-08-09T09:40:23.558Z,4.00
2018-08-09T09:42:52.121Z,4.73
2018-08-09T09:45:20.647Z,4.40
2018-08-09T09:47:49.246Z,4.23
2018-08-09T09:50:17.777Z,3.20
2018-08-09T09:52:46.643Z,7.03
2018-08-09T09:55:15.109Z,5.23
2018-08-09T09:57:43.581Z,4.90
2018-08-09T10:00:17.435Z,4.40
2018-08-09T10:02:46.454Z,4.17
2018-08-09T10:05:15.441Z,4.73
2018-08-09T10:07:43.924Z,3.93
2018-08-09T10:10:12.952Z,4.20
2018-08-09T10:12:42.540Z,4.10
2018-08-09T10:15:11.208Z,3.47
2018-08-09T10:17:39.748Z,3.43
2018-08-09T10:20:08.764Z,4.23
2018-08-09T10:22:37.449Z,4.60
2018-08-09T10:25:06.238Z,3.80
2018-08-09T10:27:34.778Z,4.30
2018-08-09T10:30:03.414Z,4.13
2018-08-09T10:32:31.982Z,3.07
2018-08-09T10:35:00.476Z,3.07
2018-08-09T10:37:29.019Z,2.60
2018-08-09T10:39:57.520Z,3.60
2018-08-09T10:42:26.005Z,3.80
2018-08-09T10:44:54.603Z,3.33
2018-08-09T10:47:23.121Z,3.07
2018-08-09T10:49:51.677Z,3.73
2018-08-09T10:52:20.290Z,3.40
2018-08-09T10:54:48.817Z,3.50
2018-08-09T10:57:17.310Z,3.97
2018-08-09T10:59:45.827Z,4.20
2018-08-09T11:02:14.346Z,3.17
2018-08-09T11:04:42.882Z,4.10
2018-08-09T11:07:11.413Z,6.30
2018-08-09T11:09:40.266Z,4.10
2018-08-09T11:12:08.791Z,4.63
2018-08-09T11:14:37.335Z,4.40
2018-08-09T11:17:05.978Z,4.50
2018-08-09T11:19:34.514Z,5.90
2018-08-09T11:22:03.047Z,6.13
2018-08-09T11:24:31.534Z,6.57
2018-08-09T11:27:00.030Z,5.27
2018-08-09T11:29:28.539Z,8.93
2018-08-09T11:31:57.139Z,8.90
2018-08-09T11:34:25.637Z,10.30
2018-08-09T11:36:56.344Z,11.27
2018-08-09T11:39:25.169Z,13.00
2018-08-09T11:41:54.557Z,15.20
2018-08-09T11:44:23.467Z,16.27
2018-08-09T11:46:51.946Z,17.07
2018-08-09T11:49:20.479Z,17.27
2018-08-09T11:51:49.146Z,18.17
2018-08-09T11:54:17.649Z,16.83
2018-08-09T11:56:46.143Z,18.63
2018-08-09T11:59:14.724Z,18.17
2018-08-09T12:01:43.256Z,19.07
2018-08-09T12:04:11.777Z,18.60
2018-08-09T12:06:40.354Z,19.87
2018-08-09T12:09:10.728Z,19.07
2018-08-09T12:11:40.390Z,19.83
2018-08-09T12:14:09.126Z,21.73
2018-08-09T12:16:37.752Z,21.07
2018-08-09T12:19:06.957Z,19.00
2018-08-09T12:21:35.484Z,23.40
2018-08-09T12:24:04.098Z,20.83
2018-08-09T12:26:32.690Z,22.57
2018-08-09T12:29:01.229Z,24.97
2018-08-09T12:31:29.778Z,23.23
2018-08-09T12:33:58.358Z,21.83
2018-08-09T12:36:26.887Z,23.37
2018-08-09T12:38:55.829Z,24.00
2018-08-09T12:41:24.412Z,23.67
2018-08-09T12:43:52.986Z,20.40
2018-08-09T12:46:21.546Z,22.10
2018-08-09T12:48:50.140Z,22.27
2018-08-09T12:51:18.774Z,19.47
2018-08-09T12:53:47.335Z,24.03
2018-08-09T12:56:15.873Z,25.10
2018-08-09T12:58:44.452Z,22.97
2018-08-09T13:01:13.033Z,27.70
2018-08-09T13:03:41.538Z,28.40
2018-08-09T13:06:10.179Z,27.10
2018-08-09T13:08:38.719Z,27.83
2018-08-09T13:11:07.298Z,27.03
2018-08-09T13:13:35.872Z,28.30
2018-08-09T13:16:04.506Z,30.23
2018-08-09T13:18:33.625Z,30.90
2018-08-09T13:21:02.627Z,28.73
2018-08-09T13:23:31.174Z,30.60
2018-08-09T13:25:59.665Z,24.93
2018-08-09T13:28:28.202Z,24.70
2018-08-09T13:30:56.782Z,28.80
2018-08-09T13:33:25.346Z,28.50
2018-08-09T13:35:53.875Z,27.30
2018-08-09T13:38:22.443Z,29.43
2018-08-09T13:40:51.026Z,31.70
2018-08-09T13:43:19.631Z,30.43
2018-08-09T13:45:48.140Z,31.70
2018-08-09T13:48:17.670Z,31.00
2018-08-09T13:50:46.323Z,32.20
2018-08-09T13:53:14.857Z,32.43
2018-08-09T13:55:43.446Z,32.47
2018-08-09T13:58:12.437Z,31.20
2018-08-09T14:00:41.606Z,32.17
2018-08-09T14:03:10.129Z,32.47
2018-08-09T14:05:38.689Z,31.10
2018-08-09T14:08:07.381Z,31.73
2018-08-09T14:10:36.114Z,35.13
2018-08-09T14:13:04.627Z,35.23
2018-08-09T14:15:33.149Z,32.47
2018-08-09T14:18:01.670Z,35.10
2018-08-09T14:20:30.333Z,36.10
2018-08-09T14:22:58.930Z,37.23
2018-08-09T14:25:27.518Z,37.80
2018-08-09T14:27:56.039Z,37.73
2018-08-09T14:30:24.578Z,40.83
2018-08-09T14:32:53.143Z,40.20
2018-08-09T14:35:21.710Z,41.80
2018-08-09T14:37:50.397Z,41.30
2018-08-09T14:40:18.954Z,43.03
2018-08-09T14:42:47.530Z,44.57
2018-08-09T14:45:17.116Z,46.33
2018-08-09T14:47:47.001Z,41.30
2018-08-09T14:50:15.878Z,45.30
2018-08-09T14:52:44.430Z,49.57
2018-08-09T14:55:12.690Z,47.73
2018-08-09T14:57:41.573Z,45.57
2018-08-09T15:00:13.000Z,43.43
2018-08-09T15:02:41.859Z,41.80
2018-08-09T15:05:10.413Z,42.27
2018-08-09T15:07:38.913Z,44.00
2018-08-09T15:10:07.721Z,41.00
2018-08-09T15:12:36.198Z,41.33
2018-08-09T15:15:06.716Z,40.70
2018-08-09T15:17:35.235Z,41.70
2018-08-09T15:20:04.954Z,43.23
2018-08-09T15:22:33.593Z,44.37
2018-08-09T15:25:02.176Z,40.53
2018-08-09T15:27:30.722Z,36.63
2018-08-09T15:29:59.248Z,37.80
2018-08-09T15:32:27.887Z,35.10
2018-08-09T15:34:56.574Z,35.97
2018-08-09T15:37:25.186Z,33.47
2018-08-09T15:39:53.876Z,31.77
2018-08-09T15:42:22.389Z,32.50
2018-08-09T15:44:51.021Z,32.17
2018-08-09T15:47:19.689Z,29.70
2018-08-09T15:49:48.229Z,28.10
2018-08-09T15:52:16.839Z,29.47
2018-08-09T15:54:45.390Z,28.67
2018-08-09T15:57:13.955Z,27.60
2018-08-09T15:59:42.690Z,27.30
2018-08-09T16:02:11.298Z,25.00
2018-08-09T16:04:39.895Z,28.20
2018-08-09T16:07:08.593Z,27.60
2018-08-09T16:09:37.098Z,24.87
2018-08-09T16:12:05.590Z,26.20
2018-08-09T16:14:34.148Z,27.37
2018-08-09T16:17:02.690Z,25.73
2018-08-09T16:19:31.313Z,28.30
2018-08-09T16:21:59.844Z,26.43
2018-08-09T16:24:28.537Z,27.13
2018-08-09T16:26:57.110Z,28.87
2018-08-09T16:29:25.649Z,30.90
2018-08-09T16:31:54.246Z,32.00
2018-08-09T16:34:22.774Z,33.60
2018-08-09T16:36:51.324Z,32.33
2018-08-09T16:39:19.832Z,35.93
2018-08-09T16:41:48.618Z,34.60
2018-08-09T16:44:17.106Z,35.17
2018-08-09T16:46:45.708Z,34.20
2018-08-09T16:49:14.414Z,32.07
2018-08-09T16:51:42.955Z,29.10
2018-08-09T16:54:11.549Z,32.97
2018-08-09T16:56:40.067Z,32.77
2018-08-09T16:59:08.658Z,32.00
2018-08-09T17:01:37.181Z,33.20
2018-08-09T17:04:06.022Z,31.93
2018-08-09T17:06:35.205Z,33.97
2018-08-09T17:09:06.735Z,32.23
2018-08-09T17:11:37.798Z,36.37
2018-08-09T17:14:06.315Z,32.03
2018-08-09T17:16:37.754Z,33.10
2018-08-09T17:19:06.917Z,32.60
2018-08-09T17:21:35.714Z,32.20
2018-08-09T17:24:04.681Z,29.10
2018-08-09T17:26:33.172Z,29.93
2018-08-09T17:29:01.675Z,30.90
2018-08-09T17:31:30.227Z,31.40
2018-08-09T17:33:58.899Z,30.70
2018-08-09T17:36:27.457Z,31.93
2018-08-09T17:38:56.149Z,29.53
2018-08-09T17:41:24.768Z,27.43
2018-08-09T17:43:53.359Z,28.83
2018-08-09T17:46:21.969Z,28.70
2018-08-09T17:48:52.526Z,27.80
2018-08-09T17:51:21.075Z,27.33
2018-08-09T17:53:49.629Z,26.50
2018-08-09T17:56:18.261Z,27.90
2018-08-09T17:58:46.851Z,27.60
2018-08-09T18:01:15.382Z,26.80
2018-08-09T18:03:43.972Z,26.27
2018-08-09T18:06:12.506Z,22.47
2018-08-09T18:08:41.118Z,21.63
2018-08-09T18:11:09.713Z,20.97
2018-08-09T18:13:38.244Z,19.90
2018-08-09T18:16:06.778Z,19.07
2018-08-09T18:18:35.380Z,15.20
2018-08-09T18:21:03.987Z,14.57
2018-08-09T18:23:32.493Z,14.40
2018-08-09T18:26:01.009Z,12.33
2018-08-09T18:28:29.576Z,10.17
2018-08-09T18:30:58.174Z,9.47
2018-08-09T18:33:26.760Z,8.93
2018-08-09T18:35:55.298Z,7.90
2018-08-09T18:38:23.943Z,7.67
2018-08-09T18:40:52.490Z,8.13
2018-08-09T18:43:20.999Z,7.93
2018-08-09T18:45:49.642Z,8.47
2018-08-09T18:48:18.216Z,7.27
2018-08-09T18:50:46.810Z,5.73
2018-08-09T18:53:15.381Z,5.17
2018-08-09T18:55:43.950Z,5.40
2018-08-09T18:58:12.570Z,4.33
2018-08-09T19:00:41.093Z,3.77
2018-08-09T19:03:11.393Z,4.07
2018-08-09T19:05:39.894Z,3.80
2018-08-09T19:08:08.789Z,3.77
2018-08-09T19:10:37.290Z,3.37
2018-08-09T19:13:05.840Z,4.27
2018-08-09T19:15:34.422Z,3.73
2018-08-09T19:18:02.975Z,4.83
2018-08-09T19:20:31.858Z,5.17
2018-08-09T19:23:00.598Z,5.03
2018-08-09T19:25:29.189Z,5.57
2018-08-09T19:27:57.969Z,6.17
2018-08-09T19:30:27.981Z,6.20
2018-08-09T19:32:56.593Z,5.10
2018-08-09T19:35:25.293Z,4.60
2018-08-09T19:37:53.879Z,3.40
2018-08-09T19:40:23.782Z,2.10
2018-08-09T19:42:52.356Z,3.13
2018-08-09T19:45:21.183Z,2.30
2018-08-09T19:47:49.930Z,2.40
2018-08-09T19:50:20.476Z,2.43
2018-08-09T19:52:49.006Z,1.93
2018-08-09T19:55:20.360Z,2.73
2018-08-09T19:57:49.663Z,1.83
2018-08-09T20:00:24.315Z,2.00
2018-08-09T20:02:52.877Z,1.80
2018-08-09T20:05:21.412Z,2.10
2018-08-09T20:07:49.967Z,1.63
2018-08-09T20:10:18.560Z,2.00
2018-08-09T20:12:47.807Z,2.13
2018-08-09T20:15:18.356Z,2.07
2018-08-09T20:17:46.930Z,2.20
2018-08-09T20:20:16.841Z,2.40
2018-08-09T20:22:46.054Z,2.93
2018-08-09T20:25:14.998Z,2.63
2018-08-09T20:27:44.046Z,2.87
2018-08-09T20:30:14.037Z,3.60
2018-08-09T20:32:43.083Z,2.70
2018-08-09T20:35:15.233Z,2.83
2018-08-09T20:37:44.930Z,2.80
2018-08-09T20:40:13.919Z,2.10
2018-08-09T20:42:42.861Z,2.87
2018-08-09T20:45:13.264Z,2.40
2018-08-09T20:47:41.764Z,2.90
2018-08-09T20:50:14.202Z,4.10
2018-08-09T20:52:43.459Z,3.73
2018-08-09T20:55:12.166Z,3.00
2018-08-09T20:57:41.979Z,3.37
2018-08-09T21:00:14.090Z,2.67
2018-08-09T21:02:43.155Z,2.47
2018-08-09T21:05:17.882Z,2.40
2018-08-09T21:07:46.513Z,2.40
2018-08-09T21:10:15.236Z,2.27
2018-08-09T21:12:43.857Z,2.80
2018-08-09T21:15:13.165Z,2.27
2018-08-09T21:17:41.703Z,2.13
2018-08-09T21:20:10.524Z,3.20
2018-08-09T21:22:39.065Z,2.00
2018-08-09T21:25:08.525Z,2.03
2018-08-09T21:27:37.198Z,2.33
2018-08-09T21:30:07.063Z,2.20
2018-08-09T21:32:36.039Z,1.77
2018-08-09T21:35:05.012Z,1.97
2018-08-09T21:37:34.041Z,1.57
2018-08-09T21:40:02.578Z,1.77
2018-08-09T21:42:31.105Z,1.70
2018-08-09T21:44:59.641Z,1.60
2018-08-09T21:47:28.244Z,1.57
2018-08-09T21:49:57.213Z,1.60
2018-08-09T21:52:25.781Z,1.20
2018-08-09T21:54:54.299Z,1.43
2018-08-09T21:57:22.973Z,1.57
2018-08-09T21:59:52.961Z,1.50
2018-08-09T22:02:21.534Z,1.20
2018-08-09T22:04:55.507Z,1.37
2018-08-09T22:07:29.522Z,1.40
2018-08-09T22:10:03.315Z,1.50
2018-08-09T22:12:37.261Z,1.33
2018-08-09T22:15:11.393Z,1.53
2018-08-09T22:17:45.125Z,1.30
2018-08-09T22:20:18.925Z,1.30
2018-08-09T22:22:47.450Z,1.60
2018-08-09T22:25:15.999Z,1.40
2018-08-09T22:27:44.538Z,1.50
2018-08-09T22:30:15.845Z,1.50
2018-08-09T22:32:44.410Z,1.40
2018-08-09T22:35:12.980Z,1.50
2018-08-09T22:37:41.608Z,1.67
2018-08-09T22:40:10.190Z,1.30
2018-08-09T22:42:38.745Z,1.70
2018-08-09T22:45:07.250Z,1.70
2018-08-09T22:47:35.848Z,1.37
2018-08-09T22:50:04.447Z,1.83
2018-08-09T22:52:33.001Z,1.87
2018-08-09T22:55:01.583Z,1.97
2018-08-09T22:57:30.162Z,2.00
2018-08-09T22:59:58.629Z,2.10
2018-08-09T23:02:27.114Z,2.30
2018-08-09T23:04:55.691Z,2.43
2018-08-09T23:07:24.212Z,3.30
2018-08-09T23:09:52.831Z,3.13
2018-08-09T23:12:21.382Z,2.80
2018-08-09T23:14:50.023Z,3.87
2018-08-09T23:17:19.160Z,3.63
2018-08-09T23:19:47.714Z,3.63
2018-08-09T23:22:19.986Z,4.07
2018-08-09T23:24:49.018Z,3.50
2018-08-09T23:27:17.550Z,4.13
2018-08-09T23:29:46.057Z,5.10
2018-08-09T23:32:14.637Z,4.30
2018-08-09T23:34:43.120Z,4.93
2018-08-09T23:37:11.676Z,6.20
2018-08-09T23:39:40.141Z,5.87
2018-08-09T23:42:08.734Z,5.70
2018-08-09T23:44:37.366Z,6.97
2018-08-09T23:47:06.129Z,6.13
2018-08-09T23:49:34.652Z,6.10
2018-08-09T23:52:03.184Z,7.40
2018-08-09T23:54:31.698Z,8.23
2018-08-09T23:57:00.209Z,8.50
2018-08-09T23:59:28.709Z,9.07
